sensor_id;sensor_type;location;lat;lon;timestamp;P1;durP1;ratioP1;P2;durP2;ratioP2
4021;SDS011;2025;48.260;16.432;2022-07-01T00:00:52;9.23;;;8.38;;
4021;SDS011;2025;48.260;16.432;2022-07-01T00:03:20;8.45;;;7.63;;
4021;SDS011;2025;48.260;16.432;2022-07-01T00:05:46;9.02;;;8.10;;
4021;SDS011;2025;48.260;16.432;2022-07-01T00:08:13;9.30;;;8.27;;
4021;SDS011;2025;48.260;16.432;2022-07-01T00:10:40;9.93;;;7.80;;
4021;SDS011;2025;48.260;16.432;2022-07-01T00:13:07;7.82;;;7.07;;
4021;SDS011;2025;48.260;16.432;2022-07-01T00:15:34;7.72;;;7.18;;
4021;SDS011;2025;48.260;16.432;2022-07-01T00:18:03;7.68;;;7.22;;
4021;SDS011;2025;48.260;16.432;2022-07-01T00:20:30;8.02;;;7.32;;
4021;SDS011;2025;48.260;16.432;2022-07-01T00:22:57;7.65;;;7.22;;
4021;SDS011;2025;48.260;16.432;2022-07-01T00:25:24;8.43;;;7.45;;
4021;SDS011;2025;48.260;16.432;2022-07-01T00:27:51;7.60;;;7.20;;
4021;SDS011;2025;48.260;16.432;2022-07-01T00:30:18;7.70;;;7.18;;
4021;SDS011;2025;48.260;16.432;2022-07-01T00:32:46;7.55;;;7.05;;
4021;SDS011;2025;48.260;16.432;2022-07-01T00:35:14;7.68;;;7.22;;
4021;SDS011;2025;48.260;16.432;2022-07-01T00:37:41;7.25;;;6.75;;
4021;SDS011;2025;48.260;16.432;2022-07-01T00:40:08;8.88;;;7.90;;
4021;SDS011;2025;48.260;16.432;2022-07-01T00:42:38;8.98;;;8.15;;
4021;SDS011;2025;48.260;16.432;2022-07-01T00:45:07;7.97;;;7.47;;
4021;SDS011;2025;48.260;16.432;2022-07-01T00:47:36;10.07;;;7.40;;
4021;SDS011;2025;48.260;16.432;2022-07-01T00:50:05;10.23;;;6.40;;
4021;SDS011;2025;48.260;16.432;2022-07-01T00:52:35;6.88;;;6.43;;
4021;SDS011;2025;48.260;16.432;2022-07-01T00:55:03;7.45;;;6.75;;
4021;SDS011;2025;48.260;16.432;2022-07-01T00:57:32;6.95;;;6.40;;
4021;SDS011;2025;48.260;16.432;2022-07-01T01:00:03;6.18;;;5.75;;
4021;SDS011;2025;48.260;16.432;2022-07-01T01:02:31;5.75;;;5.55;;
4021;SDS011;2025;48.260;16.432;2022-07-01T01:04:58;7.50;;;6.07;;
4021;SDS011;2025;48.260;16.432;2022-07-01T01:07:25;6.63;;;6.13;;
4021;SDS011;2025;48.260;16.432;2022-07-01T01:09:54;6.72;;;6.15;;
4021;SDS011;2025;48.260;16.432;2022-07-01T01:12:22;7.32;;;6.45;;
4021;SDS011;2025;48.260;16.432;2022-07-01T01:14:51;8.30;;;6.30;;
4021;SDS011;2025;48.260;16.432;2022-07-01T01:17:19;7.57;;;6.68;;
4021;SDS011;2025;48.260;16.432;2022-07-01T01:19:47;7.43;;;6.72;;
4021;SDS011;2025;48.260;16.432;2022-07-01T01:22:16;10.10;;;6.80;;
4021;SDS011;2025;48.260;16.432;2022-07-01T01:24:45;7.43;;;6.70;;
4021;SDS011;2025;48.260;16.432;2022-07-01T01:27:13;6.78;;;6.38;;
4021;SDS011;2025;48.260;16.432;2022-07-01T01:29:41;7.43;;;6.82;;
4021;SDS011;2025;48.260;16.432;2022-07-01T01:32:09;7.65;;;7.15;;
4021;SDS011;2025;48.260;16.432;2022-07-01T01:34:37;7.40;;;6.90;;
4021;SDS011;2025;48.260;16.432;2022-07-01T01:37:05;8.20;;;7.35;;
4021;SDS011;2025;48.260;16.432;2022-07-01T01:39:35;7.90;;;7.28;;
4021;SDS011;2025;48.260;16.432;2022-07-01T01:42:03;7.68;;;7.13;;
4021;SDS011;2025;48.260;16.432;2022-07-01T01:44:31;7.68;;;7.15;;
4021;SDS011;2025;48.260;16.432;2022-07-01T01:46:58;8.30;;;7.57;;
4021;SDS011;2025;48.260;16.432;2022-07-01T01:49:25;8.93;;;7.18;;
4021;SDS011;2025;48.260;16.432;2022-07-01T01:51:52;6.95;;;6.45;;
4021;SDS011;2025;48.260;16.432;2022-07-01T01:54:19;7.50;;;6.85;;
4021;SDS011;2025;48.260;16.432;2022-07-01T01:56:47;7.75;;;7.05;;
4021;SDS011;2025;48.260;16.432;2022-07-01T01:59:14;7.68;;;7.18;;
4021;SDS011;2025;48.260;16.432;2022-07-01T02:01:41;7.72;;;6.97;;
4021;SDS011;2025;48.260;16.432;2022-07-01T02:04:08;8.13;;;7.55;;
4021;SDS011;2025;48.260;16.432;2022-07-01T02:06:35;7.57;;;7.03;;
4021;SDS011;2025;48.260;16.432;2022-07-01T02:09:02;7.93;;;7.32;;
4021;SDS011;2025;48.260;16.432;2022-07-01T02:11:29;7.72;;;7.25;;
4021;SDS011;2025;48.260;16.432;2022-07-01T02:13:58;7.65;;;7.03;;
4021;SDS011;2025;48.260;16.432;2022-07-01T02:16:25;8.15;;;7.55;;
4021;SDS011;2025;48.260;16.432;2022-07-01T02:18:52;8.57;;;7.82;;
4021;SDS011;2025;48.260;16.432;2022-07-01T02:21:19;8.15;;;7.47;;
4021;SDS011;2025;48.260;16.432;2022-07-01T02:23:46;8.80;;;7.90;;
4021;SDS011;2025;48.260;16.432;2022-07-01T02:26:12;8.52;;;7.63;;
4021;SDS011;2025;48.260;16.432;2022-07-01T02:28:39;8.80;;;7.85;;
4021;SDS011;2025;48.260;16.432;2022-07-01T02:31:08;9.40;;;8.27;;
4021;SDS011;2025;48.260;16.432;2022-07-01T02:33:35;7.97;;;7.50;;
4021;SDS011;2025;48.260;16.432;2022-07-01T02:36:02;8.27;;;7.57;;
4021;SDS011;2025;48.260;16.432;2022-07-01T02:38:29;9.65;;;8.18;;
4021;SDS011;2025;48.260;16.432;2022-07-01T02:40:56;9.20;;;8.45;;
4021;SDS011;2025;48.260;16.432;2022-07-01T02:43:24;9.02;;;8.52;;
4021;SDS011;2025;48.260;16.432;2022-07-01T02:45:51;9.45;;;8.65;;
4021;SDS011;2025;48.260;16.432;2022-07-01T02:48:19;9.55;;;8.75;;
4021;SDS011;2025;48.260;16.432;2022-07-01T02:50:46;9.68;;;8.93;;
4021;SDS011;2025;48.260;16.432;2022-07-01T02:53:13;9.45;;;8.63;;
4021;SDS011;2025;48.260;16.432;2022-07-01T02:55:40;9.15;;;8.23;;
4021;SDS011;2025;48.260;16.432;2022-07-01T02:58:07;8.85;;;8.35;;
4021;SDS011;2025;48.260;16.432;2022-07-01T03:00:34;9.98;;;9.32;;
4021;SDS011;2025;48.260;16.432;2022-07-01T03:03:02;9.88;;;8.93;;
4021;SDS011;2025;48.260;16.432;2022-07-01T03:05:30;9.50;;;8.80;;
4021;SDS011;2025;48.260;16.432;2022-07-01T03:07:57;10.55;;;9.50;;
4021;SDS011;2025;48.260;16.432;2022-07-01T03:10:24;10.13;;;9.13;;
4021;SDS011;2025;48.260;16.432;2022-07-01T03:12:52;10.23;;;9.43;;
4021;SDS011;2025;48.260;16.432;2022-07-01T03:15:19;10.98;;;10.10;;
4021;SDS011;2025;48.260;16.432;2022-07-01T03:17:46;9.68;;;8.98;;
4021;SDS011;2025;48.260;16.432;2022-07-01T03:20:14;10.40;;;9.32;;
4021;SDS011;2025;48.260;16.432;2022-07-01T03:22:44;10.05;;;9.25;;
4021;SDS011;2025;48.260;16.432;2022-07-01T03:25:12;9.70;;;8.88;;
4021;SDS011;2025;48.260;16.432;2022-07-01T03:27:39;16.75;;;9.65;;
4021;SDS011;2025;48.260;16.432;2022-07-01T03:30:10;11.73;;;9.40;;
4021;SDS011;2025;48.260;16.432;2022-07-01T03:32:39;9.80;;;9.00;;
4021;SDS011;2025;48.260;16.432;2022-07-01T03:35:06;11.07;;;9.40;;
4021;SDS011;2025;48.260;16.432;2022-07-01T03:37:48;9.90;;;9.20;;
4021;SDS011;2025;48.260;16.432;2022-07-01T03:40:15;10.55;;;9.65;;
4021;SDS011;2025;48.260;16.432;2022-07-01T03:42:43;13.10;;;9.52;;
4021;SDS011;2025;48.260;16.432;2022-07-01T03:45:10;11.13;;;10.05;;
4021;SDS011;2025;48.260;16.432;2022-07-01T03:47:37;15.40;;;10.57;;
4021;SDS011;2025;48.260;16.432;2022-07-01T03:50:04;10.82;;;9.85;;
4021;SDS011;2025;48.260;16.432;2022-07-01T03:52:32;11.95;;;10.18;;
4021;SDS011;2025;48.260;16.432;2022-07-01T03:55:00;10.88;;;9.98;;
4021;SDS011;2025;48.260;16.432;2022-07-01T03:57:26;13.98;;;10.60;;
4021;SDS011;2025;48.260;16.432;2022-07-01T03:59:53;11.40;;;10.43;;
4021;SDS011;2025;48.260;16.432;2022-07-01T04:02:20;12.35;;;10.10;;
4021;SDS011;2025;48.260;16.432;2022-07-01T04:04:47;11.18;;;10.30;;
4021;SDS011;2025;48.260;16.432;2022-07-01T04:07:13;11.25;;;10.35;;
4021;SDS011;2025;48.260;16.432;2022-07-01T04:09:40;10.93;;;9.98;;
4021;SDS011;2025;48.260;16.432;2022-07-01T04:12:10;11.38;;;10.38;;
4021;SDS011;2025;48.260;16.432;2022-07-01T04:14:37;10.80;;;9.80;;
4021;SDS011;2025;48.260;16.432;2022-07-01T04:17:04;11.63;;;10.48;;
4021;SDS011;2025;48.260;16.432;2022-07-01T04:19:31;11.45;;;10.07;;
4021;SDS011;2025;48.260;16.432;2022-07-01T04:21:59;15.52;;;9.95;;
4021;SDS011;2025;48.260;16.432;2022-07-01T04:24:43;11.60;;;10.55;;
4021;SDS011;2025;48.260;16.432;2022-07-01T04:27:12;11.10;;;10.00;;
4021;SDS011;2025;48.260;16.432;2022-07-01T04:29:40;9.13;;;8.20;;
4021;SDS011;2025;48.260;16.432;2022-07-01T04:32:11;7.28;;;6.75;;
4021;SDS011;2025;48.260;16.432;2022-07-01T04:34:38;10.52;;;6.40;;
4021;SDS011;2025;48.260;16.432;2022-07-01T04:37:05;6.80;;;5.90;;
4021;SDS011;2025;48.260;16.432;2022-07-01T04:39:32;7.35;;;5.40;;
4021;SDS011;2025;48.260;16.432;2022-07-01T04:41:59;5.93;;;5.35;;
4021;SDS011;2025;48.260;16.432;2022-07-01T04:44:26;5.72;;;5.32;;
4021;SDS011;2025;48.260;16.432;2022-07-01T04:46:56;6.35;;;5.55;;
4021;SDS011;2025;48.260;16.432;2022-07-01T04:49:23;7.03;;;5.22;;
4021;SDS011;2025;48.260;16.432;2022-07-01T04:51:54;5.40;;;4.90;;
4021;SDS011;2025;48.260;16.432;2022-07-01T04:54:22;5.57;;;5.10;;
4021;SDS011;2025;48.260;16.432;2022-07-01T04:56:53;5.57;;;5.07;;
4021;SDS011;2025;48.260;16.432;2022-07-01T04:59:20;6.97;;;4.75;;
4021;SDS011;2025;48.260;16.432;2022-07-01T05:01:57;6.07;;;5.13;;
4021;SDS011;2025;48.260;16.432;2022-07-01T05:04:46;8.52;;;5.13;;
4021;SDS011;2025;48.260;16.432;2022-07-01T05:07:13;5.80;;;5.40;;
4021;SDS011;2025;48.260;16.432;2022-07-01T05:10:08;13.50;;;5.10;;
4021;SDS011;2025;48.260;16.432;2022-07-01T05:12:35;6.93;;;5.00;;
4021;SDS011;2025;48.260;16.432;2022-07-01T05:15:02;7.10;;;4.78;;
4021;SDS011;2025;48.260;16.432;2022-07-01T05:17:30;5.28;;;4.88;;
4021;SDS011;2025;48.260;16.432;2022-07-01T05:20:11;9.87;;;4.47;;
4021;SDS011;2025;48.260;16.432;2022-07-01T05:22:55;4.93;;;4.00;;
4021;SDS011;2025;48.260;16.432;2022-07-01T05:25:24;4.13;;;3.83;;
4021;SDS011;2025;48.260;16.432;2022-07-01T05:27:51;6.25;;;3.88;;
4021;SDS011;2025;48.260;16.432;2022-07-01T05:30:19;4.90;;;3.17;;
4021;SDS011;2025;48.260;16.432;2022-07-01T05:32:46;3.28;;;2.90;;
4021;SDS011;2025;48.260;16.432;2022-07-01T05:35:13;2.60;;;2.20;;
4021;SDS011;2025;48.260;16.432;2022-07-01T05:37:40;3.25;;;1.60;;
4021;SDS011;2025;48.260;16.432;2022-07-01T05:40:08;1.30;;;1.25;;
4021;SDS011;2025;48.260;16.432;2022-07-01T05:42:37;1.83;;;1.00;;
4021;SDS011;2025;48.260;16.432;2022-07-01T05:45:05;2.00;;;1.00;;
4021;SDS011;2025;48.260;16.432;2022-07-01T05:47:32;1.73;;;1.10;;
4021;SDS011;2025;48.260;16.432;2022-07-01T05:49:59;5.10;;;1.02;;
4021;SDS011;2025;48.260;16.432;2022-07-01T05:52:26;3.42;;;1.05;;
4021;SDS011;2025;48.260;16.432;2022-07-01T05:54:53;0.90;;;0.90;;
4021;SDS011;2025;48.260;16.432;2022-07-01T05:57:20;5.10;;;1.02;;
4021;SDS011;2025;48.260;16.432;2022-07-01T05:59:49;2.88;;;0.93;;
4021;SDS011;2025;48.260;16.432;2022-07-01T06:02:16;1.55;;;1.10;;
4021;SDS011;2025;48.260;16.432;2022-07-01T06:04:43;3.47;;;1.10;;
4021;SDS011;2025;48.260;16.432;2022-07-01T06:07:10;1.10;;;0.80;;
4021;SDS011;2025;48.260;16.432;2022-07-01T06:09:37;5.80;;;1.00;;
4021;SDS011;2025;48.260;16.432;2022-07-01T06:12:05;2.22;;;1.13;;
4021;SDS011;2025;48.260;16.432;2022-07-01T06:14:32;5.07;;;1.25;;
4021;SDS011;2025;48.260;16.432;2022-07-01T06:17:01;6.28;;;1.00;;
4021;SDS011;2025;48.260;16.432;2022-07-01T06:19:28;1.70;;;1.10;;
4021;SDS011;2025;48.260;16.432;2022-07-01T06:21:56;1.67;;;1.02;;
4021;SDS011;2025;48.260;16.432;2022-07-01T06:24:25;7.90;;;1.20;;
4021;SDS011;2025;48.260;16.432;2022-07-01T06:26:52;5.53;;;1.40;;
4021;SDS011;2025;48.260;16.432;2022-07-01T06:29:19;1.52;;;1.20;;
4021;SDS011;2025;48.260;16.432;2022-07-01T06:31:46;5.07;;;1.40;;
4021;SDS011;2025;48.260;16.432;2022-07-01T06:34:14;4.18;;;1.50;;
4021;SDS011;2025;48.260;16.432;2022-07-01T06:36:41;6.18;;;1.42;;
4021;SDS011;2025;48.260;16.432;2022-07-01T06:39:08;1.88;;;1.58;;
4021;SDS011;2025;48.260;16.432;2022-07-01T06:41:35;3.25;;;1.50;;
4021;SDS011;2025;48.260;16.432;2022-07-01T06:44:02;5.78;;;1.55;;
4021;SDS011;2025;48.260;16.432;2022-07-01T06:46:30;5.32;;;1.60;;
4021;SDS011;2025;48.260;16.432;2022-07-01T06:48:58;8.35;;;1.80;;
4021;SDS011;2025;48.260;16.432;2022-07-01T06:51:27;2.13;;;1.60;;
4021;SDS011;2025;48.260;16.432;2022-07-01T06:53:54;4.22;;;1.70;;
4021;SDS011;2025;48.260;16.432;2022-07-01T06:56:21;3.28;;;1.92;;
4021;SDS011;2025;48.260;16.432;2022-07-01T06:58:48;4.03;;;1.85;;
4021;SDS011;2025;48.260;16.432;2022-07-01T07:01:15;8.25;;;2.00;;
4021;SDS011;2025;48.260;16.432;2022-07-01T07:03:42;3.33;;;2.00;;
4021;SDS011;2025;48.260;16.432;2022-07-01T07:06:09;2.38;;;1.80;;
4021;SDS011;2025;48.260;16.432;2022-07-01T07:08:37;2.20;;;2.00;;
4021;SDS011;2025;48.260;16.432;2022-07-01T07:11:04;4.97;;;1.98;;
4021;SDS011;2025;48.260;16.432;2022-07-01T07:13:34;2.38;;;2.03;;
4021;SDS011;2025;48.260;16.432;2022-07-01T07:16:01;3.72;;;1.92;;
4021;SDS011;2025;48.260;16.432;2022-07-01T07:18:28;5.80;;;2.08;;
4021;SDS011;2025;48.260;16.432;2022-07-01T07:20:55;5.03;;;2.22;;
4021;SDS011;2025;48.260;16.432;2022-07-01T07:23:22;6.13;;;2.08;;
4021;SDS011;2025;48.260;16.432;2022-07-01T07:25:50;2.38;;;2.17;;
4021;SDS011;2025;48.260;16.432;2022-07-01T07:28:17;6.55;;;2.33;;
4021;SDS011;2025;48.260;16.432;2022-07-01T07:30:44;4.47;;;2.17;;
4021;SDS011;2025;48.260;16.432;2022-07-01T07:33:11;7.70;;;2.28;;
4021;SDS011;2025;48.260;16.432;2022-07-01T07:35:38;6.47;;;2.50;;
4021;SDS011;2025;48.260;16.432;2022-07-01T07:38:05;6.60;;;2.47;;
4021;SDS011;2025;48.260;16.432;2022-07-01T07:40:34;6.85;;;2.63;;
4021;SDS011;2025;48.260;16.432;2022-07-01T07:43:02;8.80;;;2.60;;
4021;SDS011;2025;48.260;16.432;2022-07-01T07:45:32;4.63;;;2.53;;
4021;SDS011;2025;48.260;16.432;2022-07-01T07:47:59;5.38;;;2.22;;
4021;SDS011;2025;48.260;16.432;2022-07-01T07:50:27;6.47;;;2.63;;
4021;SDS011;2025;48.260;16.432;2022-07-01T07:52:54;2.65;;;2.30;;
4021;SDS011;2025;48.260;16.432;2022-07-01T07:55:21;4.50;;;2.75;;
4021;SDS011;2025;48.260;16.432;2022-07-01T07:57:48;6.38;;;2.50;;
4021;SDS011;2025;48.260;16.432;2022-07-01T08:00:17;4.00;;;2.35;;
4021;SDS011;2025;48.260;16.432;2022-07-01T08:02:44;6.88;;;2.50;;
4021;SDS011;2025;48.260;16.432;2022-07-01T08:05:11;6.88;;;2.20;;
4021;SDS011;2025;48.260;16.432;2022-07-01T08:07:39;2.85;;;2.65;;
4021;SDS011;2025;48.260;16.432;2022-07-01T08:10:08;6.18;;;2.65;;
4021;SDS011;2025;48.260;16.432;2022-07-01T08:12:37;7.20;;;2.88;;
4021;SDS011;2025;48.260;16.432;2022-07-01T08:15:05;4.78;;;2.97;;
4021;SDS011;2025;48.260;16.432;2022-07-01T08:17:34;3.38;;;2.25;;
4021;SDS011;2025;48.260;16.432;2022-07-01T08:20:01;3.78;;;2.60;;
4021;SDS011;2025;48.260;16.432;2022-07-01T08:22:29;5.75;;;2.65;;
4021;SDS011;2025;48.260;16.432;2022-07-01T08:24:56;11.32;;;2.83;;
4021;SDS011;2025;48.260;16.432;2022-07-01T08:27:23;5.63;;;2.58;;
4021;SDS011;2025;48.260;16.432;2022-07-01T08:29:50;4.00;;;2.83;;
4021;SDS011;2025;48.260;16.432;2022-07-01T08:32:17;5.93;;;2.50;;
4021;SDS011;2025;48.260;16.432;2022-07-01T08:34:45;5.22;;;2.72;;
4021;SDS011;2025;48.260;16.432;2022-07-01T08:37:12;7.95;;;2.78;;
4021;SDS011;2025;48.260;16.432;2022-07-01T08:39:39;3.97;;;2.85;;
4021;SDS011;2025;48.260;16.432;2022-07-01T08:42:06;5.40;;;2.72;;
4021;SDS011;2025;48.260;16.432;2022-07-01T08:44:33;7.10;;;2.90;;
4021;SDS011;2025;48.260;16.432;2022-07-01T08:47:01;8.65;;;2.80;;
4021;SDS011;2025;48.260;16.432;2022-07-01T08:49:31;5.15;;;2.80;;
4021;SDS011;2025;48.260;16.432;2022-07-01T08:51:59;4.07;;;2.53;;
4021;SDS011;2025;48.260;16.432;2022-07-01T08:54:26;3.22;;;2.95;;
4021;SDS011;2025;48.260;16.432;2022-07-01T08:56:53;3.22;;;2.45;;
4021;SDS011;2025;48.260;16.432;2022-07-01T08:59:24;4.10;;;2.72;;
4021;SDS011;2025;48.260;16.432;2022-07-01T09:01:55;2.55;;;2.35;;
4021;SDS011;2025;48.260;16.432;2022-07-01T09:04:23;10.63;;;3.00;;
4021;SDS011;2025;48.260;16.432;2022-07-01T09:06:50;3.72;;;3.03;;
4021;SDS011;2025;48.260;16.432;2022-07-01T09:09:19;2.95;;;2.67;;
4021;SDS011;2025;48.260;16.432;2022-07-01T09:11:48;3.50;;;2.60;;
4021;SDS011;2025;48.260;16.432;2022-07-01T09:14:20;2.92;;;2.63;;
4021;SDS011;2025;48.260;16.432;2022-07-01T09:16:49;3.42;;;2.40;;
4021;SDS011;2025;48.260;16.432;2022-07-01T09:19:17;4.28;;;2.63;;
4021;SDS011;2025;48.260;16.432;2022-07-01T09:21:47;8.90;;;2.42;;
4021;SDS011;2025;48.260;16.432;2022-07-01T09:24:27;5.50;;;2.40;;
4021;SDS011;2025;48.260;16.432;2022-07-01T09:26:57;5.90;;;2.45;;
4021;SDS011;2025;48.260;16.432;2022-07-01T09:29:26;4.03;;;2.80;;
4021;SDS011;2025;48.260;16.432;2022-07-01T09:31:54;3.47;;;2.70;;
4021;SDS011;2025;48.260;16.432;2022-07-01T09:34:21;5.45;;;2.63;;
4021;SDS011;2025;48.260;16.432;2022-07-01T09:36:51;6.10;;;2.80;;
4021;SDS011;2025;48.260;16.432;2022-07-01T09:41:49;7.10;;;2.30;;
4021;SDS011;2025;48.260;16.432;2022-07-01T09:44:19;4.57;;;2.63;;
4021;SDS011;2025;48.260;16.432;2022-07-01T09:46:53;5.28;;;2.50;;
4021;SDS011;2025;48.260;16.432;2022-07-01T09:49:22;6.35;;;2.80;;
4021;SDS011;2025;48.260;16.432;2022-07-01T09:51:50;6.15;;;2.20;;
4021;SDS011;2025;48.260;16.432;2022-07-01T09:54:17;5.47;;;2.67;;
4021;SDS011;2025;48.260;16.432;2022-07-01T09:56:45;4.45;;;2.55;;
4021;SDS011;2025;48.260;16.432;2022-07-01T09:59:13;9.02;;;2.65;;
4021;SDS011;2025;48.260;16.432;2022-07-01T10:01:41;4.72;;;2.60;;
4021;SDS011;2025;48.260;16.432;2022-07-01T10:04:10;4.38;;;2.78;;
4021;SDS011;2025;48.260;16.432;2022-07-01T10:09:46;3.42;;;3.13;;
4021;SDS011;2025;48.260;16.432;2022-07-01T10:12:32;6.45;;;2.85;;
4021;SDS011;2025;48.260;16.432;2022-07-01T10:15:07;4.80;;;2.97;;
4021;SDS011;2025;48.260;16.432;2022-07-01T10:17:37;3.20;;;2.42;;
4021;SDS011;2025;48.260;16.432;2022-07-01T10:20:08;2.85;;;2.65;;
4021;SDS011;2025;48.260;16.432;2022-07-01T10:22:37;2.58;;;2.38;;
4021;SDS011;2025;48.260;16.432;2022-07-01T10:28:15;5.53;;;3.22;;
4021;SDS011;2025;48.260;16.432;2022-07-01T10:30:54;5.65;;;2.92;;
4021;SDS011;2025;48.260;16.432;2022-07-01T10:33:31;8.00;;;3.38;;
4021;SDS011;2025;48.260;16.432;2022-07-01T10:36:06;7.75;;;2.58;;
4021;SDS011;2025;48.260;16.432;2022-07-01T10:41:57;5.57;;;2.80;;
4021;SDS011;2025;48.260;16.432;2022-07-01T10:44:29;9.57;;;3.20;;
4021;SDS011;2025;48.260;16.432;2022-07-01T10:47:06;2.72;;;2.30;;
4021;SDS011;2025;48.260;16.432;2022-07-01T10:52:25;4.38;;;2.60;;
4021;SDS011;2025;48.260;16.432;2022-07-01T10:54:53;5.28;;;2.70;;
4021;SDS011;2025;48.260;16.432;2022-07-01T11:05:33;2.95;;;2.72;;
4021;SDS011;2025;48.260;16.432;2022-07-01T11:08:01;2.90;;;2.50;;
4021;SDS011;2025;48.260;16.432;2022-07-01T11:10:30;7.30;;;3.03;;
4021;SDS011;2025;48.260;16.432;2022-07-01T11:12:58;5.65;;;2.60;;
4021;SDS011;2025;48.260;16.432;2022-07-01T11:15:26;3.28;;;2.60;;
4021;SDS011;2025;48.260;16.432;2022-07-01T11:17:54;7.63;;;2.47;;
4021;SDS011;2025;48.260;16.432;2022-07-01T11:20:24;4.18;;;2.70;;
4021;SDS011;2025;48.260;16.432;2022-07-01T11:22:54;3.72;;;2.42;;
4021;SDS011;2025;48.260;16.432;2022-07-01T11:25:25;4.55;;;2.70;;
4021;SDS011;2025;48.260;16.432;2022-07-01T11:27:56;5.07;;;2.60;;
4021;SDS011;2025;48.260;16.432;2022-07-01T11:30:23;4.28;;;2.75;;
4021;SDS011;2025;48.260;16.432;2022-07-01T11:32:50;3.00;;;2.10;;
4021;SDS011;2025;48.260;16.432;2022-07-01T11:35:19;6.07;;;2.83;;
4021;SDS011;2025;48.260;16.432;2022-07-01T11:38:07;6.82;;;2.35;;
4021;SDS011;2025;48.260;16.432;2022-07-01T11:40:53;2.80;;;2.30;;
4021;SDS011;2025;48.260;16.432;2022-07-01T11:43:21;2.67;;;2.40;;
4021;SDS011;2025;48.260;16.432;2022-07-01T11:45:50;2.95;;;2.50;;
4021;SDS011;2025;48.260;16.432;2022-07-01T11:48:30;6.53;;;1.98;;
4021;SDS011;2025;48.260;16.432;2022-07-01T11:51:05;6.90;;;2.00;;
4021;SDS011;2025;48.260;16.432;2022-07-01T11:53:35;6.47;;;2.20;;
4021;SDS011;2025;48.260;16.432;2022-07-01T11:56:02;3.90;;;2.42;;
4021;SDS011;2025;48.260;16.432;2022-07-01T11:58:46;3.10;;;2.25;;
4021;SDS011;2025;48.260;16.432;2022-07-01T12:01:24;3.28;;;2.15;;
4021;SDS011;2025;48.260;16.432;2022-07-01T12:03:54;3.63;;;2.45;;
4021;SDS011;2025;48.260;16.432;2022-07-01T12:06:22;4.57;;;2.03;;
4021;SDS011;2025;48.260;16.432;2022-07-01T12:08:51;3.08;;;2.15;;
4021;SDS011;2025;48.260;16.432;2022-07-01T12:11:21;3.13;;;2.10;;
4021;SDS011;2025;48.260;16.432;2022-07-01T12:13:50;5.95;;;2.25;;
4021;SDS011;2025;48.260;16.432;2022-07-01T12:16:17;7.38;;;2.45;;
4021;SDS011;2025;48.260;16.432;2022-07-01T12:18:55;2.45;;;2.25;;
4021;SDS011;2025;48.260;16.432;2022-07-01T12:21:23;2.65;;;2.28;;
4021;SDS011;2025;48.260;16.432;2022-07-01T12:24:08;4.68;;;2.47;;
4021;SDS011;2025;48.260;16.432;2022-07-01T12:26:45;2.67;;;2.33;;
4021;SDS011;2025;48.260;16.432;2022-07-01T12:29:16;2.63;;;2.28;;
4021;SDS011;2025;48.260;16.432;2022-07-01T12:31:46;4.15;;;2.03;;
4021;SDS011;2025;48.260;16.432;2022-07-01T12:34:21;2.95;;;2.00;;
4021;SDS011;2025;48.260;16.432;2022-07-01T12:36:48;2.42;;;2.20;;
4021;SDS011;2025;48.260;16.432;2022-07-01T12:39:17;5.18;;;2.20;;
4021;SDS011;2025;48.260;16.432;2022-07-01T12:41:49;2.38;;;2.17;;
4021;SDS011;2025;48.260;16.432;2022-07-01T12:44:20;5.63;;;2.25;;
4021;SDS011;2025;48.260;16.432;2022-07-01T12:46:48;5.45;;;2.35;;
4021;SDS011;2025;48.260;16.432;2022-07-01T12:49:19;2.70;;;2.20;;
4021;SDS011;2025;48.260;16.432;2022-07-01T12:51:48;2.50;;;2.30;;
4021;SDS011;2025;48.260;16.432;2022-07-01T12:54:32;2.67;;;2.28;;
4021;SDS011;2025;48.260;16.432;2022-07-01T12:57:01;2.33;;;2.22;;
4021;SDS011;2025;48.260;16.432;2022-07-01T12:59:29;3.90;;;2.35;;
4021;SDS011;2025;48.260;16.432;2022-07-01T13:01:57;4.93;;;2.03;;
4021;SDS011;2025;48.260;16.432;2022-07-01T13:04:26;5.15;;;2.30;;
4021;SDS011;2025;48.260;16.432;2022-07-01T13:06:54;2.63;;;2.50;;
4021;SDS011;2025;48.260;16.432;2022-07-01T13:09:21;5.38;;;2.50;;
4021;SDS011;2025;48.260;16.432;2022-07-01T13:11:49;2.58;;;2.38;;
4021;SDS011;2025;48.260;16.432;2022-07-01T13:14:16;7.22;;;2.30;;
4021;SDS011;2025;48.260;16.432;2022-07-01T13:16:43;3.30;;;2.05;;
4021;SDS011;2025;48.260;16.432;2022-07-01T13:19:10;3.22;;;2.38;;
4021;SDS011;2025;48.260;16.432;2022-07-01T13:21:37;3.95;;;2.13;;
4021;SDS011;2025;48.260;16.432;2022-07-01T13:24:04;2.38;;;2.20;;
4021;SDS011;2025;48.260;16.432;2022-07-01T13:26:33;2.25;;;2.08;;
4021;SDS011;2025;48.260;16.432;2022-07-01T13:29:04;4.93;;;2.20;;
4021;SDS011;2025;48.260;16.432;2022-07-01T13:31:32;2.85;;;2.65;;
4021;SDS011;2025;48.260;16.432;2022-07-01T13:33:59;4.20;;;2.58;;
4021;SDS011;2025;48.260;16.432;2022-07-01T13:36:26;3.33;;;2.45;;
4021;SDS011;2025;48.260;16.432;2022-07-01T13:38:53;2.95;;;2.70;;
4021;SDS011;2025;48.260;16.432;2022-07-01T13:41:20;5.53;;;2.40;;
4021;SDS011;2025;48.260;16.432;2022-07-01T13:43:51;8.13;;;2.50;;
4021;SDS011;2025;48.260;16.432;2022-07-01T13:46:20;3.05;;;2.25;;
4021;SDS011;2025;48.260;16.432;2022-07-01T13:48:49;3.08;;;2.38;;
4021;SDS011;2025;48.260;16.432;2022-07-01T13:51:16;3.28;;;2.60;;
4021;SDS011;2025;48.260;16.432;2022-07-01T13:53:43;3.10;;;2.80;;
4021;SDS011;2025;48.260;16.432;2022-07-01T13:56:10;5.40;;;2.78;;
4021;SDS011;2025;48.260;16.432;2022-07-01T13:58:37;3.97;;;2.50;;
4021;SDS011;2025;48.260;16.432;2022-07-01T14:01:07;2.70;;;2.60;;
4021;SDS011;2025;48.260;16.432;2022-07-01T14:03:35;6.90;;;2.53;;
4021;SDS011;2025;48.260;16.432;2022-07-01T14:06:02;3.05;;;2.40;;
4021;SDS011;2025;48.260;16.432;2022-07-01T14:08:29;4.90;;;2.40;;
4021;SDS011;2025;48.260;16.432;2022-07-01T14:10:56;4.80;;;2.50;;
4021;SDS011;2025;48.260;16.432;2022-07-01T14:13:23;6.65;;;2.50;;
4021;SDS011;2025;48.260;16.432;2022-07-01T14:15:51;3.03;;;2.33;;
4021;SDS011;2025;48.260;16.432;2022-07-01T14:18:19;3.63;;;2.35;;
4021;SDS011;2025;48.260;16.432;2022-07-01T14:20:47;3.72;;;2.55;;
4021;SDS011;2025;48.260;16.432;2022-07-01T14:23:14;2.47;;;2.20;;
4021;SDS011;2025;48.260;16.432;2022-07-01T14:25:41;3.40;;;2.30;;
4021;SDS011;2025;48.260;16.432;2022-07-01T14:28:10;4.38;;;2.53;;
4021;SDS011;2025;48.260;16.432;2022-07-01T14:30:37;8.82;;;2.88;;
4021;SDS011;2025;48.260;16.432;2022-07-01T14:33:04;3.28;;;2.78;;
4021;SDS011;2025;48.260;16.432;2022-07-01T14:35:31;3.58;;;2.80;;
4021;SDS011;2025;48.260;16.432;2022-07-01T14:38:00;4.07;;;2.30;;
4021;SDS011;2025;48.260;16.432;2022-07-01T14:40:27;3.08;;;2.40;;
4021;SDS011;2025;48.260;16.432;2022-07-01T14:42:54;6.95;;;2.97;;
4021;SDS011;2025;48.260;16.432;2022-07-01T14:45:21;4.22;;;2.30;;
4021;SDS011;2025;48.260;16.432;2022-07-01T14:47:48;5.68;;;2.30;;
4021;SDS011;2025;48.260;16.432;2022-07-01T14:50:15;4.85;;;2.47;;
4021;SDS011;2025;48.260;16.432;2022-07-01T14:52:42;2.80;;;2.40;;
4021;SDS011;2025;48.260;16.432;2022-07-01T14:55:10;4.45;;;2.50;;
4021;SDS011;2025;48.260;16.432;2022-07-01T14:57:38;3.17;;;2.65;;
4021;SDS011;2025;48.260;16.432;2022-07-01T15:00:05;2.78;;;2.67;;
4021;SDS011;2025;48.260;16.432;2022-07-01T15:02:33;4.53;;;2.60;;
4021;SDS011;2025;48.260;16.432;2022-07-01T15:05:00;6.95;;;2.60;;
4021;SDS011;2025;48.260;16.432;2022-07-01T15:07:27;4.22;;;3.15;;
4021;SDS011;2025;48.260;16.432;2022-07-01T15:09:54;3.10;;;2.67;;
4021;SDS011;2025;48.260;16.432;2022-07-01T15:12:26;7.22;;;2.90;;
4021;SDS011;2025;48.260;16.432;2022-07-01T15:14:56;2.80;;;2.60;;
4021;SDS011;2025;48.260;16.432;2022-07-01T15:17:23;5.57;;;2.55;;
4021;SDS011;2025;48.260;16.432;2022-07-01T15:19:50;2.92;;;2.70;;
4021;SDS011;2025;48.260;16.432;2022-07-01T15:22:17;5.25;;;2.63;;
4021;SDS011;2025;48.260;16.432;2022-07-01T15:24:44;2.83;;;2.50;;
4021;SDS011;2025;48.260;16.432;2022-07-01T15:27:11;7.53;;;2.90;;
4021;SDS011;2025;48.260;16.432;2022-07-01T15:29:40;3.58;;;2.90;;
4021;SDS011;2025;48.260;16.432;2022-07-01T15:32:07;5.18;;;2.50;;